createdAt,value
2022-11-09T00:00:46.586Z,19.60
2022-11-09T00:01:49.020Z,19.60
2022-11-09T00:02:51.332Z,19.60
2022-11-09T00:03:58.372Z,19.70
2022-11-09T00:05:00.785Z,19.70
2022-11-09T00:06:03.212Z,19.80
2022-11-09T00:07:05.563Z,19.80
2022-11-09T00:08:09.705Z,19.80
2022-11-09T00:09:12.182Z,19.80
2022-11-09T00:10:14.740Z,19.80
2022-11-09T00:11:17.709Z,19.90
2022-11-09T00:12:19.974Z,19.90
2022-11-09T00:13:22.794Z,19.90
2022-11-09T00:14:25.393Z,19.90
2022-11-09T00:15:27.983Z,19.90
2022-11-09T00:16:30.275Z,19.90
2022-11-09T00:17:32.698Z,20.00
2022-11-09T00:18:36.618Z,19.90
2022-11-09T00:19:38.910Z,19.90
2022-11-09T00:20:47.262Z,19.90
2022-11-09T00:21:50.721Z,19.90
2022-11-09T00:22:52.994Z,20.00
2022-11-09T00:23:55.305Z,20.00
2022-11-09T00:24:57.629Z,20.00
2022-11-09T00:26:08.181Z,20.00
2022-11-09T00:27:15.188Z,20.00
2022-11-09T00:28:19.717Z,20.00
2022-11-09T00:29:22.887Z,20.00
2022-11-09T00:30:25.206Z,20.10
2022-11-09T00:31:27.505Z,20.10
2022-11-09T00:32:29.851Z,20.00
2022-11-09T00:33:32.716Z,20.00
2022-11-09T00:34:34.976Z,20.00
2022-11-09T00:35:39.209Z,20.00
2022-11-09T00:36:41.800Z,20.00
2022-11-09T00:37:44.141Z,20.00
2022-11-09T00:39:00.554Z,20.00
2022-11-09T00:40:02.902Z,20.00
2022-11-09T00:41:06.267Z,20.00
2022-11-09T00:42:08.517Z,20.00
2022-11-09T00:43:11.245Z,20.00
2022-11-09T00:44:13.642Z,20.00
2022-11-09T00:45:16.612Z,20.00
2022-11-09T00:46:19.879Z,20.00
2022-11-09T00:47:22.656Z,20.10
2022-11-09T00:48:25.201Z,20.00
2022-11-09T00:49:27.492Z,20.10
2022-11-09T00:50:30.155Z,20.10
2022-11-09T00:51:32.896Z,20.10
2022-11-09T00:52:35.332Z,20.00
2022-11-09T00:53:38.125Z,20.00
2022-11-09T00:54:40.597Z,20.10
2022-11-09T00:55:42.898Z,20.10
2022-11-09T00:56:45.439Z,20.10
2022-11-09T00:57:51.700Z,20.10
2022-11-09T00:58:56.026Z,20.10
2022-11-09T00:59:58.515Z,20.10
2022-11-09T01:01:06.990Z,20.10
2022-11-09T01:02:09.974Z,20.10
2022-11-09T01:03:12.309Z,20.10
2022-11-09T01:04:14.591Z,20.10
2022-11-09T01:05:17.481Z,20.10
2022-11-09T01:06:22.995Z,20.10
2022-11-09T01:07:25.537Z,20.10
2022-11-09T01:08:27.898Z,20.10
2022-11-09T01:09:30.306Z,20.00
2022-11-09T01:10:32.943Z,20.10
2022-11-09T01:11:35.258Z,20.10
2022-11-09T01:12:37.513Z,20.00
2022-11-09T01:13:40.131Z,20.00
2022-11-09T01:14:43.148Z,20.00
2022-11-09T01:15:53.076Z,20.00
2022-11-09T01:16:55.347Z,20.10
2022-11-09T01:17:57.620Z,20.00
2022-11-09T01:19:00.385Z,20.00
2022-11-09T01:20:02.980Z,20.00
2022-11-09T01:21:07.416Z,20.00
2022-11-09T01:22:09.976Z,20.00
2022-11-09T01:23:13.589Z,20.10
2022-11-09T01:24:15.914Z,20.00
2022-11-09T01:25:18.430Z,20.00
2022-11-09T01:26:21.201Z,20.00
2022-11-09T01:27:25.720Z,20.00
2022-11-09T01:28:28.371Z,20.00
2022-11-09T01:29:31.060Z,20.00
2022-11-09T01:30:38.231Z,20.00
2022-11-09T01:31:40.574Z,20.00
2022-11-09T01:32:42.852Z,20.00
2022-11-09T01:33:46.018Z,20.00
2022-11-09T01:34:48.358Z,20.00
2022-11-09T01:35:50.642Z,20.00
2022-11-09T01:36:53.074Z,20.00
2022-11-09T01:37:55.356Z,20.00
2022-11-09T01:38:57.705Z,20.00
2022-11-09T01:40:00.036Z,19.90
2022-11-09T01:41:02.444Z,20.00
2022-11-09T01:42:04.774Z,20.00
2022-11-09T01:43:27.362Z,19.90
2022-11-09T01:44:30.195Z,19.90
2022-11-09T01:45:32.510Z,19.90
2022-11-09T01:46:40.706Z,19.90
2022-11-09T01:47:48.310Z,19.90
2022-11-09T01:48:55.683Z,19.90
2022-11-09T01:50:00.332Z,19.90
2022-11-09T01:51:27.974Z,19.90
2022-11-09T01:52:35.317Z,19.90
2022-11-09T01:53:40.611Z,19.90
2022-11-09T01:54:52.076Z,19.90
2022-11-09T01:55:58.282Z,19.90
2022-11-09T01:57:05.820Z,19.90
2022-11-09T01:58:15.909Z,19.90
2022-11-09T01:59:22.231Z,19.90
2022-11-09T02:00:25.579Z,19.90
2022-11-09T02:01:28.054Z,19.90
2022-11-09T02:02:30.333Z,19.90
2022-11-09T02:03:42.522Z,19.90
2022-11-09T02:04:54.526Z,19.90
2022-11-09T02:05:59.224Z,19.90
2022-11-09T02:07:02.583Z,19.90
2022-11-09T02:08:06.582Z,19.80
2022-11-09T02:09:34.729Z,19.90
2022-11-09T02:10:45.881Z,19.90
2022-11-09T02:11:48.170Z,19.80
2022-11-09T02:12:52.687Z,19.90
2022-11-09T02:13:58.573Z,19.80
2022-11-09T02:15:04.742Z,19.80
2022-11-09T02:16:10.332Z,19.90
2022-11-09T02:17:12.976Z,19.80
2022-11-09T02:18:16.295Z,19.80
2022-11-09T02:19:18.633Z,19.80
2022-11-09T02:20:22.808Z,19.80
2022-11-09T02:21:27.847Z,19.80
2022-11-09T02:22:30.416Z,19.80
2022-11-09T02:23:33.666Z,19.80
2022-11-09T02:24:35.958Z,19.80
2022-11-09T02:25:40.110Z,19.80
2022-11-09T02:26:51.193Z,19.80
2022-11-09T02:27:53.722Z,19.90
2022-11-09T02:28:57.192Z,19.80
2022-11-09T02:30:00.531Z,19.90
2022-11-09T02:31:05.840Z,19.80
2022-11-09T02:32:19.712Z,19.80
2022-11-09T02:33:23.210Z,19.90
2022-11-09T02:34:25.990Z,19.90
2022-11-09T02:35:28.390Z,19.90
2022-11-09T02:36:31.117Z,19.90
2022-11-09T02:37:47.094Z,19.80
2022-11-09T02:38:51.414Z,19.80
2022-11-09T02:39:54.527Z,19.80
2022-11-09T02:40:56.821Z,19.80
2022-11-09T02:42:05.081Z,19.80
2022-11-09T02:43:14.276Z,19.80
2022-11-09T02:44:18.375Z,19.80
2022-11-09T02:45:20.761Z,19.80
2022-11-09T02:46:26.156Z,19.80
2022-11-09T02:47:28.432Z,19.80
2022-11-09T02:48:30.878Z,19.80
2022-11-09T02:49:33.587Z,19.80
2022-11-09T02:50:37.189Z,19.80
2022-11-09T02:51:41.236Z,19.80
2022-11-09T02:52:43.524Z,19.80
2022-11-09T02:53:46.492Z,19.80
2022-11-09T02:54:48.886Z,19.80
2022-11-09T02:55:52.469Z,19.80
2022-11-09T02:56:54.860Z,19.80
2022-11-09T02:57:57.779Z,19.80
2022-11-09T02:59:00.084Z,19.80
2022-11-09T03:00:03.245Z,19.80
2022-11-09T03:01:06.594Z,19.80
2022-11-09T03:02:09.734Z,19.80
2022-11-09T03:03:12.180Z,19.80
2022-11-09T03:04:14.474Z,19.80
2022-11-09T03:05:17.276Z,19.80
2022-11-09T03:06:20.760Z,19.80
2022-11-09T03:07:24.484Z,19.80
2022-11-09T03:08:27.312Z,19.80
2022-11-09T03:09:29.655Z,19.80
2022-11-09T03:10:32.256Z,19.80
2022-11-09T03:11:34.571Z,19.90
2022-11-09T03:12:37.143Z,19.80
2022-11-09T03:13:45.970Z,19.80
2022-11-09T03:14:49.010Z,19.80
2022-11-09T03:15:51.672Z,19.80
2022-11-09T03:16:54.036Z,19.80
2022-11-09T03:17:56.833Z,19.80
2022-11-09T03:19:00.124Z,19.80
2022-11-09T03:20:03.669Z,19.80
2022-11-09T03:21:06.994Z,19.80
2022-11-09T03:22:09.302Z,19.80
2022-11-09T03:23:12.131Z,19.80
2022-11-09T03:24:15.174Z,19.80
2022-11-09T03:25:17.978Z,19.80
2022-11-09T03:26:20.938Z,19.80
2022-11-09T03:27:23.254Z,19.90
2022-11-09T03:28:25.806Z,19.90
2022-11-09T03:29:29.469Z,19.90
2022-11-09T03:30:32.448Z,20.00
2022-11-09T03:31:35.103Z,19.90
2022-11-09T03:32:40.713Z,19.90
2022-11-09T03:33:43.528Z,19.90
2022-11-09T03:34:46.155Z,19.90
2022-11-09T03:35:49.931Z,19.90
2022-11-09T03:36:53.925Z,20.00
2022-11-09T03:37:57.598Z,19.90
2022-11-09T03:39:01.078Z,19.90
2022-11-09T03:40:03.600Z,19.90
2022-11-09T03:41:05.971Z,19.90
2022-11-09T03:42:10.655Z,19.90
2022-11-09T03:43:14.549Z,19.90
2022-11-09T03:44:17.557Z,19.90
2022-11-09T03:45:19.838Z,20.00
2022-11-09T03:46:22.304Z,20.00
2022-11-09T03:47:24.762Z,20.00
2022-11-09T03:48:27.041Z,20.00
2022-11-09T03:49:29.366Z,20.10
2022-11-09T03:50:33.565Z,20.00
2022-11-09T03:51:36.117Z,20.00
2022-11-09T03:52:38.533Z,20.00
2022-11-09T03:53:40.860Z,19.90
2022-11-09T03:54:43.159Z,19.90
2022-11-09T03:55:45.467Z,19.90
2022-11-09T03:56:47.721Z,20.00
2022-11-09T03:57:50.192Z,19.90
2022-11-09T03:58:52.544Z,20.00
2022-11-09T03:59:54.836Z,20.00
2022-11-09T04:00:57.150Z,20.00
2022-11-09T04:01:59.485Z,20.00
2022-11-09T04:03:02.091Z,20.00
2022-11-09T04:04:04.564Z,20.00
2022-11-09T04:05:07.893Z,19.90
2022-11-09T04:06:10.138Z,19.90
2022-11-09T04:07:12.530Z,19.90
2022-11-09T04:08:14.857Z,19.90
2022-11-09T04:09:17.156Z,19.90
2022-11-09T04:10:20.657Z,19.90
2022-11-09T04:11:23.101Z,19.90
2022-11-09T04:12:25.466Z,19.90
2022-11-09T04:13:27.828Z,19.90
2022-11-09T04:14:30.293Z,19.90
2022-11-09T04:15:32.641Z,19.90
2022-11-09T04:16:34.960Z,19.90
2022-11-09T04:17:37.561Z,19.90
2022-11-09T04:18:39.832Z,19.90
2022-11-09T04:19:42.166Z,19.90
2022-11-09T04:20:44.554Z,19.90
2022-11-09T04:21:48.027Z,19.90
2022-11-09T04:23:11.195Z,19.90
2022-11-09T04:24:13.557Z,19.90
2022-11-09T04:25:15.904Z,19.90
2022-11-09T04:26:18.192Z,20.00
2022-11-09T04:27:20.475Z,19.90
2022-11-09T04:28:23.013Z,20.00
2022-11-09T04:29:25.330Z,20.00
2022-11-09T04:30:28.943Z,20.00
2022-11-09T04:31:31.323Z,19.90
2022-11-09T04:32:33.811Z,19.90
2022-11-09T04:33:36.103Z,19.90
2022-11-09T04:34:38.428Z,19.90
2022-11-09T04:35:40.791Z,19.90
2022-11-09T04:36:44.152Z,19.90
2022-11-09T04:37:54.552Z,19.90
2022-11-09T04:38:57.069Z,20.00
2022-11-09T04:39:59.372Z,20.00
2022-11-09T04:41:02.632Z,20.10
2022-11-09T04:42:05.351Z,20.10
2022-11-09T04:43:11.364Z,20.00
2022-11-09T04:44:13.651Z,19.70
2022-11-09T04:45:16.328Z,19.40
2022-11-09T04:46:18.637Z,19.20
2022-11-09T04:47:20.914Z,19.10
2022-11-09T04:48:23.338Z,19.00
2022-11-09T04:49:25.598Z,18.90
2022-11-09T04:50:29.322Z,18.90
2022-11-09T04:51:31.723Z,18.80
2022-11-09T04:52:33.981Z,18.90
2022-11-09T04:53:37.549Z,19.20
2022-11-09T04:54:39.833Z,19.40
2022-11-09T04:55:42.329Z,19.60
2022-11-09T04:56:44.708Z,19.80
2022-11-09T04:57:47.567Z,19.90
2022-11-09T04:58:49.860Z,20.00
2022-11-09T04:59:52.118Z,20.20
2022-11-09T05:00:55.269Z,20.20
2022-11-09T05:01:57.641Z,20.30
2022-11-09T05:03:04.833Z,20.40
2022-11-09T05:04:07.232Z,20.50
2022-11-09T05:05:09.660Z,20.50
2022-11-09T05:06:30.737Z,20.60
2022-11-09T05:07:33.061Z,20.70
2022-11-09T05:08:35.401Z,20.80
2022-11-09T05:09:37.827Z,20.80
2022-11-09T05:10:40.118Z,20.90
2022-11-09T05:11:42.470Z,20.90
2022-11-09T05:12:45.990Z,21.00
2022-11-09T05:13:48.821Z,21.00
2022-11-09T05:14:51.155Z,21.00
2022-11-09T05:15:53.459Z,21.10
2022-11-09T05:16:55.729Z,21.10
2022-11-09T05:17:58.321Z,21.10
2022-11-09T05:19:00.629Z,21.10
2022-11-09T05:20:03.415Z,21.20
2022-11-09T05:21:06.158Z,21.20
2022-11-09T05:22:26.875Z,21.20
2022-11-09T05:23:47.911Z,21.20
2022-11-09T05:24:51.709Z,21.20
2022-11-09T05:25:54.200Z,21.10
2022-11-09T05:26:57.350Z,21.10
2022-11-09T05:28:00.075Z,21.10
2022-11-09T05:29:04.879Z,21.10
2022-11-09T05:30:07.911Z,21.10
2022-11-09T05:31:10.238Z,21.10
2022-11-09T05:32:12.567Z,21.10
2022-11-09T05:33:17.217Z,21.10
2022-11-09T05:34:19.726Z,21.20
2022-11-09T05:35:22.173Z,21.30
2022-11-09T05:36:24.489Z,21.30
2022-11-09T05:37:26.739Z,21.30
2022-11-09T05:38:29.153Z,21.30
2022-11-09T05:39:31.552Z,21.40
2022-11-09T05:40:34.597Z,21.40
2022-11-09T05:41:36.946Z,21.40
2022-11-09T05:42:40.745Z,21.30
2022-11-09T05:43:44.810Z,21.40
2022-11-09T05:44:47.307Z,21.40
2022-11-09T05:45:49.721Z,21.40
2022-11-09T05:46:52.045Z,21.40
2022-11-09T05:47:54.548Z,21.40
2022-11-09T05:48:56.852Z,21.40
2022-11-09T05:49:59.138Z,21.40
2022-11-09T05:51:05.721Z,21.30
2022-11-09T05:52:07.984Z,21.40
2022-11-09T05:53:11.836Z,21.40
2022-11-09T05:54:14.211Z,21.40
2022-11-09T05:55:16.582Z,21.40
2022-11-09T05:56:18.874Z,21.40
2022-11-09T05:57:21.122Z,21.40
2022-11-09T05:58:23.476Z,21.40
2022-11-09T05:59:25.761Z,21.40
2022-11-09T06:00:28.662Z,21.40
2022-11-09T06:01:30.917Z,21.40
2022-11-09T06:02:33.417Z,21.40
2022-11-09T06:03:35.966Z,21.40
2022-11-09T06:04:38.389Z,21.50
2022-11-09T06:05:41.258Z,21.40
2022-11-09T06:06:43.757Z,21.50
2022-11-09T06:07:46.389Z,21.40
2022-11-09T06:08:49.940Z,21.50
2022-11-09T06:09:52.262Z,21.50
2022-11-09T06:11:05.884Z,21.50
2022-11-09T06:12:08.629Z,21.50
2022-11-09T06:13:11.447Z,21.50
2022-11-09T06:14:13.800Z,21.50
2022-11-09T06:15:16.142Z,21.50
2022-11-09T06:16:18.585Z,21.50
2022-11-09T06:17:20.990Z,21.50
2022-11-09T06:18:28.144Z,21.40
2022-11-09T06:19:30.413Z,21.30
2022-11-09T06:20:33.271Z,21.30
2022-11-09T06:21:35.638Z,21.30
2022-11-09T06:22:37.971Z,21.20
2022-11-09T06:23:40.261Z,21.10
2022-11-09T06:24:42.686Z,21.20
2022-11-09T06:25:44.981Z,21.20
2022-11-09T06:26:47.297Z,21.30
2022-11-09T06:27:50.330Z,21.30
2022-11-09T06:28:52.645Z,21.40
2022-11-09T06:29:54.892Z,21.50
2022-11-09T06:30:58.934Z,21.50
2022-11-09T06:32:01.260Z,21.50
2022-11-09T06:33:03.711Z,21.50
2022-11-09T06:34:06.195Z,21.60
2022-11-09T06:35:09.129Z,21.70
2022-11-09T06:36:12.249Z,21.80
2022-11-09T06:37:16.941Z,21.80
2022-11-09T06:38:19.275Z,21.80
2022-11-09T06:39:22.191Z,21.80
2022-11-09T06:40:24.486Z,21.80
2022-11-09T06:41:26.759Z,21.80
2022-11-09T06:42:29.080Z,21.90
2022-11-09T06:43:31.400Z,21.80
2022-11-09T06:44:33.710Z,21.80
2022-11-09T06:45:36.076Z,21.80
2022-11-09T06:46:38.351Z,21.80
2022-11-09T06:47:40.734Z,21.70
2022-11-09T06:48:44.300Z,21.70
2022-11-09T06:49:46.739Z,21.70
2022-11-09T06:50:49.337Z,21.70
2022-11-09T06:51:51.792Z,21.70
2022-11-09T06:52:58.811Z,21.70
2022-11-09T06:54:01.148Z,21.70
2022-11-09T06:55:03.838Z,21.70
2022-11-09T06:56:06.698Z,21.70
2022-11-09T06:57:08.941Z,21.70
2022-11-09T06:58:15.825Z,21.70
2022-11-09T06:59:18.158Z,21.70
2022-11-09T07:00:21.352Z,21.80
2022-11-09T07:01:28.588Z,21.80
2022-11-09T07:02:30.863Z,21.80
2022-11-09T07:03:33.185Z,21.70
2022-11-09T07:04:35.561Z,21.70
2022-11-09T07:05:39.789Z,21.70
2022-11-09T07:06:42.334Z,21.70
2022-11-09T07:07:44.644Z,21.70
2022-11-09T07:08:47.030Z,21.70
2022-11-09T07:09:49.469Z,21.70
2022-11-09T07:10:51.749Z,21.70
2022-11-09T07:11:53.998Z,21.70
2022-11-09T07:12:58.240Z,21.80
2022-11-09T07:14:01.597Z,21.80
2022-11-09T07:15:05.046Z,21.80
2022-11-09T07:16:08.093Z,21.80
2022-11-09T07:17:10.516Z,21.70
2022-11-09T07:18:13.229Z,21.60
2022-11-09T07:19:15.555Z,21.50
2022-11-09T07:20:17.924Z,21.50
2022-11-09T07:21:20.238Z,21.50
2022-11-09T07:22:22.531Z,21.50
2022-11-09T07:23:25.292Z,21.50
2022-11-09T07:24:27.635Z,21.60
2022-11-09T07:25:29.972Z,21.60
2022-11-09T07:26:32.355Z,21.60
2022-11-09T07:27:35.167Z,21.60
2022-11-09T07:28:37.478Z,21.60
2022-11-09T07:29:39.834Z,21.60
2022-11-09T07:30:42.245Z,21.60
2022-11-09T07:31:44.674Z,21.70
2022-11-09T07:33:08.153Z,21.80
2022-11-09T07:34:09.451Z,21.80
2022-11-09T07:35:12.582Z,21.70
2022-11-09T07:36:20.936Z,21.70
2022-11-09T07:37:23.824Z,21.70
2022-11-09T07:38:27.750Z,21.70
2022-11-09T07:39:30.169Z,21.60
2022-11-09T07:40:32.812Z,21.70
2022-11-09T07:41:35.187Z,21.60
2022-11-09T07:42:37.605Z,21.60
2022-11-09T07:43:40.070Z,21.60
2022-11-09T07:44:42.387Z,21.60
2022-11-09T07:45:44.799Z,21.70
2022-11-09T07:46:48.536Z,21.60
2022-11-09T07:47:58.145Z,21.70
2022-11-09T07:49:00.435Z,21.60
2022-11-09T07:50:03.436Z,21.70
2022-11-09T07:51:06.058Z,21.60
2022-11-09T07:52:08.390Z,21.60
2022-11-09T07:53:13.488Z,21.70
2022-11-09T07:54:15.774Z,21.60
2022-11-09T07:55:18.095Z,21.70
2022-11-09T07:56:20.394Z,21.70
2022-11-09T07:57:22.711Z,21.70
2022-11-09T07:58:25.212Z,21.60
2022-11-09T07:59:27.612Z,21.70
2022-11-09T08:00:32.860Z,21.70
2022-11-09T08:01:35.215Z,21.70
2022-11-09T08:02:37.529Z,21.70
2022-11-09T08:03:39.893Z,21.70
2022-11-09T08:04:42.236Z,21.70
2022-11-09T08:05:44.628Z,21.70
2022-11-09T08:06:46.921Z,21.70
2022-11-09T08:07:54.218Z,21.70
2022-11-09T08:08:57.757Z,21.70
2022-11-09T08:10:00.253Z,21.70
2022-11-09T08:11:02.615Z,21.70
2022-11-09T08:12:05.064Z,21.70
2022-11-09T08:13:13.283Z,21.70
2022-11-09T08:14:15.642Z,21.70
2022-11-09T08:15:17.937Z,21.70
2022-11-09T08:16:20.330Z,21.70
2022-11-09T08:17:22.678Z,21.70
2022-11-09T08:18:25.093Z,21.80
2022-11-09T08:19:27.427Z,21.80
2022-11-09T08:20:30.178Z,21.80
2022-11-09T08:21:32.660Z,21.80
2022-11-09T08:22:44.626Z,21.80
2022-11-09T08:23:47.002Z,21.80
2022-11-09T08:24:49.486Z,21.80
2022-11-09T08:25:51.823Z,21.80
2022-11-09T08:26:54.192Z,21.80
2022-11-09T08:27:57.074Z,21.80
2022-11-09T08:28:59.591Z,21.80
2022-11-09T08:30:01.958Z,21.80
2022-11-09T08:31:06.791Z,21.80
2022-11-09T08:32:09.076Z,21.80
2022-11-09T08:33:12.159Z,21.80
2022-11-09T08:34:14.953Z,21.80
2022-11-09T08:35:22.522Z,21.80
2022-11-09T08:36:31.330Z,21.80
2022-11-09T08:37:37.716Z,21.80
2022-11-09T08:38:40.685Z,21.80
2022-11-09T08:39:43.140Z,21.80
2022-11-09T08:40:45.462Z,21.80
2022-11-09T08:41:47.831Z,21.80
2022-11-09T08:42:51.258Z,21.80
2022-11-09T08:43:53.665Z,21.80
2022-11-09T08:44:56.058Z,21.80
2022-11-09T08:45:58.402Z,21.80
2022-11-09T08:47:00.745Z,21.80
2022-11-09T08:48:04.592Z,21.80
2022-11-09T08:49:06.880Z,21.80
2022-11-09T08:50:10.918Z,21.80
2022-11-09T08:51:13.250Z,21.90
2022-11-09T08:52:16.950Z,21.80
2022-11-09T08:53:19.275Z,21.80
2022-11-09T08:54:21.863Z,21.80
2022-11-09T08:55:25.450Z,21.80
2022-11-09T08:56:27.876Z,21.80
2022-11-09T08:57:30.745Z,21.80
2022-11-09T08:58:33.234Z,21.80
2022-11-09T08:59:35.823Z,21.80
2022-11-09T09:00:38.144Z,21.80
2022-11-09T09:01:40.502Z,21.80
2022-11-09T09:02:42.830Z,21.80
2022-11-09T09:03:46.577Z,21.80
2022-11-09T09:04:48.868Z,21.80
2022-11-09T09:05:51.488Z,21.90
2022-11-09T09:06:54.098Z,21.80
2022-11-09T09:07:58.418Z,21.80
2022-11-09T09:09:00.719Z,21.80
2022-11-09T09:10:04.532Z,21.80
2022-11-09T09:11:07.081Z,21.80
2022-11-09T09:12:10.025Z,21.90
2022-11-09T09:13:12.337Z,21.80
2022-11-09T09:14:16.051Z,21.80
2022-11-09T09:15:18.962Z,21.50
2022-11-09T09:16:21.398Z,21.30
2022-11-09T09:17:23.792Z,21.20
2022-11-09T09:18:26.114Z,21.10
2022-11-09T09:19:28.517Z,21.20
2022-11-09T09:20:31.254Z,21.30
2022-11-09T09:21:33.585Z,21.40
2022-11-09T09:22:36.208Z,21.40
2022-11-09T09:23:41.074Z,21.50
2022-11-09T09:24:43.373Z,21.50
2022-11-09T09:25:45.714Z,21.60
2022-11-09T09:26:48.305Z,21.70
2022-11-09T09:27:50.668Z,21.60
2022-11-09T09:28:52.955Z,21.70
2022-11-09T09:29:55.564Z,21.70
2022-11-09T09:31:01.854Z,21.70
2022-11-09T09:32:04.548Z,21.80
2022-11-09T09:33:07.042Z,21.90
2022-11-09T09:34:11.114Z,21.80
2022-11-09T09:35:13.578Z,21.90
2022-11-09T09:36:22.029Z,21.90
2022-11-09T09:37:24.346Z,21.90
2022-11-09T09:38:28.414Z,21.90
2022-11-09T09:39:30.910Z,21.90
2022-11-09T09:40:47.789Z,21.80
2022-11-09T09:41:56.110Z,21.80
2022-11-09T09:42:58.548Z,21.90
2022-11-09T09:44:18.587Z,21.90
2022-11-09T09:45:30.533Z,21.90
2022-11-09T09:46:44.942Z,21.90
2022-11-09T09:48:11.582Z,21.90
2022-11-09T09:49:19.859Z,21.90
2022-11-09T09:50:26.704Z,21.90
2022-11-09T09:51:32.891Z,21.90
2022-11-09T09:52:41.160Z,22.00
2022-11-09T09:53:49.131Z,22.00
2022-11-09T09:55:10.158Z,22.10
2022-11-09T09:56:19.349Z,22.20
2022-11-09T09:57:24.328Z,22.10
2022-11-09T09:58:29.083Z,22.00
2022-11-09T09:59:42.808Z,22.00
2022-11-09T10:00:45.293Z,22.00
2022-11-09T10:01:49.123Z,22.00
2022-11-09T10:02:52.638Z,22.00
2022-11-09T10:03:55.032Z,22.00
2022-11-09T10:05:03.033Z,21.90
2022-11-09T10:06:19.049Z,21.90
2022-11-09T10:08:00.363Z,22.00
2022-11-09T10:09:44.934Z,21.90
2022-11-09T10:11:10.749Z,22.10
2022-11-09T10:12:29.531Z,22.20
2022-11-09T10:13:58.247Z,22.30
2022-11-09T10:15:13.839Z,22.20
2022-11-09T10:16:35.109Z,22.20
2022-11-09T10:17:48.483Z,22.20
2022-11-09T10:19:25.403Z,22.20
2022-11-09T10:20:52.822Z,22.20
2022-11-09T10:22:11.415Z,22.20
2022-11-09T10:23:16.467Z,22.20
2022-11-09T10:24:31.116Z,22.20
2022-11-09T10:26:02.209Z,22.20
2022-11-09T10:27:02.763Z,22.20
2022-11-09T10:28:16.282Z,22.20
2022-11-09T10:29:43.321Z,22.20
2022-11-09T10:30:46.618Z,22.20
2022-11-09T10:31:53.288Z,22.20
2022-11-09T10:32:59.603Z,22.20
2022-11-09T10:34:26.575Z,22.20
2022-11-09T10:35:34.362Z,22.10
2022-11-09T10:36:45.337Z,22.10
2022-11-09T10:37:52.429Z,22.10
2022-11-09T10:38:58.816Z,22.00
2022-11-09T10:40:26.916Z,22.00
2022-11-09T10:41:47.846Z,22.00
2022-11-09T10:43:13.809Z,22.00
2022-11-09T10:44:34.793Z,22.00
2022-11-09T10:46:05.536Z,22.00
2022-11-09T10:47:26.485Z,22.00
2022-11-09T10:48:47.561Z,22.00
2022-11-09T10:50:14.581Z,21.90
2022-11-09T10:51:37.954Z,21.80
2022-11-09T10:53:19.825Z,21.60
2022-11-09T10:54:40.855Z,21.80
2022-11-09T10:56:04.296Z,21.80
2022-11-09T10:57:25.984Z,21.90
2022-11-09T10:58:48.716Z,21.90
2022-11-09T11:00:20.562Z,22.00
2022-11-09T11:01:41.748Z,22.00
2022-11-09T11:03:15.084Z,22.10
2022-11-09T11:04:36.010Z,22.10
2022-11-09T11:05:58.837Z,22.10
2022-11-09T11:07:22.204Z,22.10
2022-11-09T11:08:45.827Z,22.10
2022-11-09T11:10:11.089Z,22.10
2022-11-09T11:11:36.113Z,22.10
2022-11-09T11:13:00.446Z,22.10
2022-11-09T11:14:30.410Z,22.20
2022-11-09T11:15:52.208Z,22.20
2022-11-09T11:17:34.753Z,22.20
2022-11-09T11:18:56.804Z,22.20
2022-11-09T11:20:35.712Z,22.20
2022-11-09T11:22:11.335Z,22.20
2022-11-09T11:23:36.753Z,22.20
2022-11-09T11:25:16.975Z,22.20
2022-11-09T11:26:40.099Z,22.20
2022-11-09T11:28:14.266Z,22.20
2022-11-09T11:29:44.640Z,22.20
2022-11-09T11:31:12.735Z,22.20
2022-11-09T11:32:33.827Z,22.20
2022-11-09T11:33:56.447Z,22.20
2022-11-09T11:35:22.808Z,22.20
2022-11-09T11:36:58.726Z,22.20
2022-11-09T11:38:37.187Z,22.20
2022-11-09T11:40:32.344Z,22.20
2022-11-09T11:42:12.998Z,22.20
2022-11-09T11:44:01.557Z,22.30
2022-11-09T11:45:40.781Z,22.20
2022-11-09T11:47:24.861Z,22.20
2022-11-09T11:49:04.545Z,22.20
2022-11-09T11:50:25.602Z,22.20
2022-11-09T11:52:03.897Z,22.20
2022-11-09T11:53:33.532Z,22.20
2022-11-09T11:55:00.498Z,22.30
2022-11-09T11:56:38.389Z,22.30
2022-11-09T11:58:23.500Z,22.10
2022-11-09T11:59:59.224Z,22.00
2022-11-09T12:02:01.448Z,22.00
2022-11-09T12:03:39.963Z,22.00
2022-11-09T12:05:19.206Z,22.00
2022-11-09T12:06:52.152Z,22.00
2022-11-09T12:08:49.825Z,22.10
2022-11-09T12:10:37.918Z,22.00
2022-11-09T12:12:07.511Z,22.00
2022-11-09T12:13:49.639Z,22.00
2022-11-09T12:15:20.708Z,22.00
2022-11-09T12:17:03.147Z,22.00
2022-11-09T12:18:49.846Z,22.00
2022-11-09T12:20:31.096Z,22.00
2022-11-09T12:22:01.598Z,22.10
2022-11-09T12:23:51.258Z,22.00
2022-11-09T12:25:29.081Z,22.10
2022-11-09T12:27:41.343Z,22.00
2022-11-09T12:29:46.778Z,22.10
2022-11-09T12:31:33.184Z,22.00
2022-11-09T12:33:01.722Z,22.10
2022-11-09T12:34:37.494Z,22.10
2022-11-09T12:36:07.512Z,22.00
2022-11-09T12:37:35.581Z,22.00
2022-11-09T12:39:25.971Z,22.10
2022-11-09T12:40:58.739Z,22.10
2022-11-09T12:42:37.134Z,22.10
2022-11-09T12:44:21.731Z,22.10
2022-11-09T12:45:44.572Z,22.10
2022-11-09T12:47:11.608Z,22.10
2022-11-09T12:48:35.237Z,22.10
2022-11-09T12:49:56.640Z,22.10
2022-11-09T12:51:18.316Z,22.20
2022-11-09T12:52:39.570Z,22.10
2022-11-09T12:54:09.843Z,22.10
2022-11-09T12:55:43.488Z,22.10
2022-11-09T12:57:08.529Z,22.10
2022-11-09T12:58:35.019Z,22.20
2022-11-09T12:59:58.365Z,22.20
2022-11-09T13:01:34.524Z,22.20
2022-11-09T13:02:58.488Z,22.20
2022-11-09T13:04:22.075Z,22.20
2022-11-09T13:05:45.732Z,22.20
2022-11-09T13:07:06.768Z,22.20
2022-11-09T13:08:30.359Z,22.20
2022-11-09T13:09:56.234Z,22.20
2022-11-09T13:11:25.781Z,22.20
2022-11-09T13:12:47.087Z,22.20
2022-11-09T13:14:23.048Z,22.20
2022-11-09T13:16:07.056Z,22.20
2022-11-09T13:17:28.638Z,22.20
2022-11-09T13:18:51.889Z,22.10
2022-11-09T13:20:58.058Z,22.20
2022-11-09T13:22:22.940Z,22.30
2022-11-09T13:24:03.279Z,22.30
2022-11-09T13:25:48.158Z,22.20
2022-11-09T13:27:36.365Z,22.30
2022-11-09T13:29:16.049Z,22.40
2022-11-09T13:30:43.111Z,22.40
2022-11-09T13:32:11.390Z,22.40
2022-11-09T13:33:33.668Z,22.30
2022-11-09T13:34:59.950Z,22.30
2022-11-09T13:36:21.850Z,22.20
2022-11-09T13:37:42.647Z,22.20
2022-11-09T13:39:33.791Z,22.20
2022-11-09T13:40:59.863Z,22.20
2022-11-09T13:42:35.908Z,22.40
2022-11-09T13:44:27.333Z,22.40
2022-11-09T13:45:51.038Z,22.30
2022-11-09T13:47:29.784Z,22.20
2022-11-09T13:48:54.233Z,22.10
2022-11-09T13:50:20.569Z,22.00
2022-11-09T13:51:46.822Z,22.00
2022-11-09T13:53:26.512Z,22.00
2022-11-09T13:54:53.912Z,22.00
2022-11-09T13:56:30.178Z,21.90
2022-11-09T13:57:54.092Z,21.80
2022-11-09T13:59:18.045Z,21.80
2022-11-09T14:00:38.742Z,21.80
2022-11-09T14:02:01.588Z,21.80
2022-11-09T14:03:28.705Z,21.80
2022-11-09T14:04:49.348Z,21.80
2022-11-09T14:06:12.619Z,21.70
2022-11-09T14:07:35.779Z,21.70
2022-11-09T14:08:58.328Z,21.60
2022-11-09T14:10:46.497Z,21.50
2022-11-09T14:12:17.744Z,21.50
2022-11-09T14:14:14.842Z,21.40
2022-11-09T14:15:50.460Z,21.20
2022-11-09T14:17:40.785Z,21.00
2022-11-09T14:19:23.964Z,20.80
2022-11-09T14:20:57.148Z,20.80
2022-11-09T14:22:19.829Z,20.60
2022-11-09T14:23:41.096Z,20.50
2022-11-09T14:25:16.023Z,20.50
2022-11-09T14:26:36.787Z,20.50
2022-11-09T14:27:57.494Z,20.50
2022-11-09T14:29:23.488Z,20.50
2022-11-09T14:30:45.457Z,20.50
2022-11-09T14:32:29.429Z,20.50
2022-11-09T14:34:05.949Z,20.50
2022-11-09T14:35:33.339Z,20.60
2022-11-09T14:36:55.000Z,20.40
2022-11-09T14:38:21.561Z,20.40
2022-11-09T14:39:46.949Z,20.30
2022-11-09T14:41:24.982Z,20.30
2022-11-09T14:42:52.227Z,20.40
2022-11-09T14:44:35.509Z,20.40
2022-11-09T14:45:59.982Z,20.30
2022-11-09T14:47:30.722Z,20.30
2022-11-09T14:48:58.829Z,20.30
2022-11-09T14:50:24.393Z,20.30
2022-11-09T14:51:45.321Z,20.20
2022-11-09T14:53:06.766Z,20.30
2022-11-09T14:54:28.099Z,20.40
2022-11-09T14:55:50.308Z,20.70
2022-11-09T14:57:16.358Z,20.90
2022-11-09T14:58:42.290Z,21.00
2022-11-09T15:00:04.371Z,21.10
2022-11-09T15:01:26.677Z,21.10
2022-11-09T15:02:47.497Z,21.20
2022-11-09T15:04:20.993Z,21.20
2022-11-09T15:05:42.174Z,21.30
2022-11-09T15:07:04.953Z,21.40
2022-11-09T15:08:26.826Z,21.40
2022-11-09T15:09:51.452Z,21.40